Latest Weather Observations for Kadina

IDS60801

Issued at 4:31 pm CDT Wednesday 22 February 2017 (issued every 30 minutes, with the page automatically refreshed every 10 minutes)

About weather observations | Map of weather stations | Latest weather observations for SA | Other Formats
Station Details ID: 022050 Name: KADINA AWS Lat: -33.97 Lon: 137.66 Height: 41.14 m
Data from the previous 72 hours. | See also: Recent months at Kadina
Date/Time
CDT
Temp
°C
App
Temp
°C
Dew
Point
°C
Rel
Hum
%
Delta-T
°C
Wind Press
QNH
hPa
Press
MSL
hPa
Rain since
9am
mm
Dir  Spd
km/h
Gust
km/h
Spd
kts
Gust
kts
22/04:30pm 26.2 19.5 8.2 32 9.7 WSW 33 46 18 25 1011.9 1011.7 -
22/04:00pm 25.7 19.1 7.8 32 9.6 WSW 32 44 17 24 1011.8 1011.6 -
22/03:30pm 26.5 20.9 8.9 33 9.6 WSW 28 41 15 22 1011.8 1011.6 -
22/03:00pm 25.8 19.6 9.2 35 9.1 WSW 32 44 17 24 1011.7 1011.5 -
22/02:30pm 25.3 19.9 9.6 37 8.6 WSW 28 41 15 22 1011.8 1011.6 -
22/02:00pm 25.4 20.1 9.7 37 8.6 WSW 28 37 15 20 1011.7 1011.5 -
22/01:30pm 25.6 19.2 6.8 30 9.9 WSW 30 43 16 23 1011.6 1011.4 -
22/01:00pm 25.5 20.2 8.5 34 9.2 WSW 26 35 14 19 1011.7 1011.5 -
22/12:30pm 24.2 20.3 10.8 43 7.5 W 22 35 12 19 1011.8 1011.6 -
22/12:00pm 24.1 19.9 11.1 44 7.3 WNW 24 33 13 18 1011.7 1011.5 -
22/11:30am 24.3 19.3 10.9 43 7.5 W 28 39 15 21 1011.8 1011.6 -
22/11:00am 23.4 - 10.8 45 7.0 - - - - - 1012.0 1011.8 -
22/08:00am 22.7 20.8 12.9 54 5.6 NNE 15 30 8 16 1008.4 1008.2 0.0
22/07:30am 19.8 15.8 8.2 47 6.0 NE 19 24 10 13 1007.9 1007.7 0.0
22/07:00am 20.1 15.2 6.8 42 6.7 NNE 22 28 12 15 1007.4 1007.2 0.0
22/06:30am 21.1 14.7 5.1 35 7.9 NNE 28 35 15 19 1006.9 1006.7 0.0
22/06:00am 22.5 15.1 4.1 30 9.0 NNE 32 39 17 21 1006.9 1006.7 0.0
22/05:30am 21.4 14.9 4.9 34 8.1 NNE 28 32 15 17 1007.0 1006.8 0.0
22/05:00am 20.4 14.7 6.7 41 6.9 NNE 26 32 14 17 1007.0 1006.8 0.0
22/04:30am 20.4 14.5 4.0 34 7.9 NE 24 28 13 15 1007.6 1007.4 0.0
22/04:00am 20.5 14.8 2.8 31 8.3 NNE 22 26 12 14 1008.0 1007.8 0.0
22/03:30am 21.4 15.3 2.6 29 8.9 NNE 24 30 13 16 1008.0 1007.8 0.0
22/03:00am 21.6 15.5 2.8 29 8.9 NNE 24 28 13 15 1008.5 1008.3 0.0
22/02:30am 22.4 16.3 2.5 27 9.4 NNE 24 32 13 17 1008.8 1008.6 0.0
22/02:00am 22.5 16.0 2.6 27 9.4 NNE 26 32 14 17 1009.2 1009.0 0.0
22/01:30am 22.4 16.7 3.0 28 9.3 NE 22 28 12 15 1009.7 1009.5 0.0
22/01:00am 22.2 16.6 3.3 29 9.1 NE 22 26 12 14 1010.1 1009.9 0.0
22/12:30am 21.6 16.1 4.2 32 8.5 NE 22 26 12 14 1010.5 1010.3 0.0
22/12:00am 20.7 16.1 6.3 39 7.3 NE 20 24 11 13 1010.7 1010.5 0.0
 
Date/Time
CDT
Temp
°C
App
Temp
°C
Dew
Point
°C
Rel
Hum
%
Delta-T
°C
Wind Press
QNH
hPa
Press
MSL
hPa
Rain since
9am
mm
Dir  Spd
km/h
Gust
km/h
Spd
kts
Gust
kts
21/11:30pm 21.1 16.0 5.9 37 7.6 NE 22 26 12 14 1011.1 1010.9 0.0
21/11:00pm 22.9 18.1 5.8 33 8.6 NE 20 24 11 13 1011.5 1011.3 0.0
21/10:30pm 22.7 18.1 5.6 33 8.6 ENE 19 22 10 12 1011.8 1011.6 0.0
21/10:00pm 21.1 16.9 5.9 37 7.6 ENE 17 19 9 10 1011.9 1011.7 0.0
21/09:30pm 22.5 18.3 5.9 34 8.4 NE 17 19 9 10 1012.0 1011.8 0.0
21/09:00pm 22.5 18.6 5.4 33 8.6 NE 15 17 8 9 1011.8 1011.6 0.0
21/08:30pm 24.1 19.9 5.5 30 9.4 NE 17 19 9 10 1011.5 1011.3 0.0
21/08:00pm 26.6 22.1 4.4 24 11.2 NE 17 20 9 11 1011.3 1011.1 0.0
21/07:30pm 28.9 23.9 4.4 21 12.6 NNE 20 28 11 15 1011.1 1010.9 0.0
21/07:00pm 30.0 23.7 3.9 19 13.3 NNE 26 33 14 18 1011.2 1011.0 0.0
21/06:30pm 30.4 22.7 3.4 18 13.7 NNE 33 41 18 22 1011.3 1011.1 0.0
21/06:00pm 30.9 23.9 2.2 16 14.3 N 28 37 15 20 1011.3 1011.1 0.0
21/05:30pm 30.6 23.7 4.4 19 13.6 NNE 30 39 16 21 1011.6 1011.4 0.0
21/05:00pm 30.3 23.8 4.9 20 13.2 NNE 28 39 15 21 1012.1 1011.9 0.0
21/04:30pm 30.5 25.0 5.7 21 13.1 N 24 35 13 19 1012.6 1012.4 0.0
21/04:00pm 29.5 23.8 4.9 21 12.8 N 24 37 13 20 1013.1 1012.9 0.0
21/03:30pm 29.3 23.4 6.0 23 12.3 N 26 35 14 19 1013.6 1013.4 0.0
21/03:00pm 28.7 22.6 4.9 22 12.3 N 26 35 14 19 1014.3 1014.1 0.0
21/02:30pm 29.2 23.1 6.6 24 12.0 N 28 39 15 21 1014.6 1014.4 0.0
21/02:00pm 28.8 22.5 7.4 26 11.5 N 30 41 16 22 1015.2 1015.0 0.0
21/01:30pm 27.2 20.8 7.1 28 10.7 N 30 39 16 21 1015.7 1015.5 0.0
21/01:00pm 26.3 19.3 6.9 29 10.2 N 33 43 18 23 1016.2 1016.0 0.0
21/12:30pm 26.7 20.1 6.2 27 10.7 N 30 39 16 21 1016.6 1016.4 0.0
21/12:00pm 26.4 19.9 6.4 28 10.4 N 30 37 16 20 1017.1 1016.9 0.0
21/11:30am 26.2 20.3 5.7 27 10.5 N 26 35 14 19 1017.4 1017.2 0.0
21/11:00am 24.9 19.7 5.7 29 9.8 N 22 32 12 17 1017.7 1017.5 0.0
21/10:30am 24.2 19.1 6.0 31 9.3 N 22 32 12 17 1017.8 1017.6 0.0
21/10:00am 22.8 17.3 6.1 34 8.5 NNE 24 32 13 17 1018.0 1017.8 0.0
21/09:30am 21.5 16.4 7.7 41 7.2 NNE 24 28 13 15 1018.2 1018.0 0.0
21/09:00am 19.3 15.1 8.3 49 5.7 NE 20 28 11 15 1018.2 1018.0 0.0
21/08:30am 16.5 12.6 8.5 59 4.1 ENE 19 24 10 13 1017.8 1017.6 0.0
21/08:00am 12.9 10.3 9.4 79 1.8 E 13 17 7 9 1017.6 1017.4 0.0
21/07:30am 10.1 7.2 8.0 87 1.0 E 13 15 7 8 1017.5 1017.3 0.0
21/07:00am 8.9 5.4 7.4 90 0.7 E 15 15 8 8 1017.3 1017.1 0.0
21/06:30am 9.1 5.3 7.5 90 0.8 ESE 17 19 9 10 1017.2 1017.0 0.0
21/06:00am 8.9 5.4 7.4 90 0.7 ESE 15 17 8 9 1017.0 1016.8 0.0
21/05:30am 9.1 5.7 7.5 90 0.8 ESE 15 17 8 9 1016.9 1016.7 0.0
21/05:00am 9.1 6.1 7.5 90 0.8 ESE 13 15 7 8 1017.0 1016.8 0.0
21/04:30am 9.5 6.1 7.8 89 0.8 ESE 15 17 8 9 1017.0 1016.8 0.0
21/04:00am 9.8 6.5 8.1 89 0.8 ESE 15 17 8 9 1017.0 1016.8 0.0
21/03:30am 10.3 6.7 8.4 88 0.9 ESE 17 19 9 10 1017.0 1016.8 0.0
21/03:00am 10.5 7.3 8.6 88 0.9 ESE 15 15 8 8 1017.3 1017.1 0.0
21/02:30am 11.1 8.1 9.2 88 0.9 ESE 15 17 8 9 1017.3 1017.1 0.0
21/02:00am 11.6 8.7 9.7 88 1.0 ESE 15 17 8 9 1017.6 1017.4 0.0
21/01:30am 12.6 9.8 10.1 85 1.3 ESE 15 19 8 10 1017.8 1017.6 0.0
21/01:00am 12.7 9.7 10.8 88 1.0 ESE 17 19 9 10 1018.0 1017.8 0.0
21/12:30am 11.1 8.4 8.8 86 1.1 ESE 13 15 7 8 1018.2 1018.0 0.0
21/12:00am 11.1 8.4 8.8 86 1.1 SE 13 13 7 7 1018.5 1018.3 0.0
 
Date/Time
CDT
Temp
°C
App
Temp
°C
Dew
Point
°C
Rel
Hum
%
Delta-T
°C
Wind Press
QNH
hPa
Press
MSL
hPa
Rain since
9am
mm
Dir  Spd
km/h
Gust
km/h
Spd
kts
Gust
kts
20/11:30pm 11.8 9.1 9.0 83 1.4 SE 13 15 7 8 1018.6 1018.4 0.0
20/11:00pm 12.8 9.8 9.1 78 1.9 SE 15 17 8 9 1018.8 1018.6 0.0
20/10:30pm 13.3 10.0 9.4 77 2.0 SE 17 19 9 10 1018.9 1018.7 0.0
20/10:00pm 13.9 10.9 9.3 74 2.3 SE 15 17 8 9 1018.9 1018.7 0.0
20/09:30pm 14.4 11.4 9.4 72 2.6 SE 15 17 8 9 1018.4 1018.2 0.0
20/09:00pm 15.8 12.6 9.9 68 3.1 SE 17 19 9 10 1018.2 1018.0 0.0
20/08:30pm 17.0 13.8 10.1 64 3.6 SE 17 20 9 11 1018.2 1018.0 0.0
20/08:00pm 18.4 14.9 10.3 59 4.3 SE 19 26 10 14 1017.8 1017.6 0.0
20/07:30pm 19.6 15.6 10.3 55 5.0 SSE 22 28 12 15 1017.3 1017.1 0.0
20/07:00pm 21.0 17.4 9.9 49 6.0 SSE 19 24 10 13 1017.0 1016.8 0.0
20/06:30pm 21.9 18.7 9.8 46 6.5 SSE 17 22 9 12 1016.7 1016.5 0.0
20/06:00pm 22.9 19.2 10.0 44 7.0 SSW 20 41 11 22 1016.5 1016.3 0.0
20/05:30pm 22.1 16.5 11.5 51 5.9 WSW 32 41 17 22 1016.2 1016.0 0.0
20/05:00pm 21.7 15.8 10.5 49 6.1 WSW 32 43 17 23 1016.1 1015.9 0.0
20/04:30pm 22.1 16.0 9.6 45 6.7 WSW 32 39 17 21 1016.2 1016.0 0.0
20/04:00pm 22.1 16.6 9.3 44 6.9 WSW 28 39 15 21 1016.4 1016.2 0.0
20/03:30pm 22.1 17.0 9.3 44 6.9 WSW 26 35 14 19 1016.6 1016.4 0.0
20/03:00pm 22.4 17.7 9.2 43 7.1 WSW 24 33 13 18 1016.7 1016.5 0.0
20/02:30pm 22.7 18.4 9.5 43 7.1 SW 22 35 12 19 1017.0 1016.8 0.0
20/02:00pm 22.7 18.9 9.8 44 7.0 WSW 20 30 11 16 1017.2 1017.0 0.0
20/01:30pm 21.6 17.2 8.8 44 6.8 SW 22 32 12 17 1017.4 1017.2 0.0
20/01:00pm 21.3 18.7 9.2 46 6.5 W 13 30 7 16 1017.6 1017.4 0.0
20/12:30pm 20.5 16.4 8.5 46 6.3 NW 20 30 11 16 1018.0 1017.8 0.0
20/12:00pm 20.9 18.6 7.5 42 6.9 SSE 9 17 5 9 1018.3 1018.1 0.0
20/11:30am 19.5 17.8 8.2 48 5.8 SSE 7 13 4 7 1018.4 1018.2 0.0
20/11:00am 19.4 16.8 7.8 47 6.0 SSE 11 19 6 10 1018.6 1018.4 0.0
20/10:30am 19.0 16.2 8.6 51 5.4 SSE 13 19 7 10 1018.8 1018.6 0.0
20/10:00am 18.2 15.9 10.3 60 4.2 SE 13 19 7 10 1018.9 1018.7 0.0
20/09:30am 16.9 15.1 10.7 67 3.3 ESE 11 15 6 8 1019.0 1018.8 0.0
20/09:00am 15.9 14.2 11.1 73 2.6 E 11 15 6 8 1019.1 1018.9 0.0
20/08:30am 14.8 12.5 10.6 76 2.2 ESE 13 17 7 9 1019.0 1018.8 0.0
20/08:00am 12.8 11.3 10.7 87 1.1 E 9 13 5 7 1018.7 1018.5 0.0
20/07:30am 10.8 9.4 9.4 91 0.7 SE 7 9 4 5 1018.3 1018.1 0.0
20/07:00am 10.2 8.2 8.8 91 0.7 SSE 9 11 5 6 1017.7 1017.5 0.0
20/06:30am 9.6 6.7 8.0 90 0.8 SE 13 13 7 7 1017.4 1017.2 0.0
20/06:00am 9.4 6.8 7.7 89 0.8 SE 11 13 6 7 1017.2 1017.0 0.0
20/05:30am 11.0 9.4 8.9 87 1.0 SE 7 9 4 5 1017.3 1017.1 0.0
20/05:00am 12.2 10.0 9.2 82 1.5 SSE 11 13 6 7 1016.9 1016.7 0.0
20/04:30am 14.0 11.6 10.0 77 2.1 SSE 13 19 7 10 1016.9 1016.7 0.0
20/04:00am 14.4 12.4 10.2 76 2.2 S 11 15 6 8 1016.9 1016.7 0.0
20/03:30am 14.9 11.7 10.1 73 2.5 SSE 17 20 9 11 1016.8 1016.6 0.0
20/03:00am 15.2 12.5 10.4 73 2.5 SSE 15 19 8 10 1016.8 1016.6 0.0
20/02:30am 15.2 12.1 10.4 73 2.5 S 17 24 9 13 1017.0 1016.8 0.0
20/02:00am 14.8 11.4 10.6 76 2.2 S 19 24 10 13 1017.2 1017.0 0.0
20/01:30am 14.6 11.2 10.6 77 2.1 SSE 19 20 10 11 1017.3 1017.1 0.0
20/01:00am 14.9 12.5 11.3 79 1.9 S 15 20 8 11 1017.5 1017.3 0.0
20/12:30am 14.2 12.2 11.4 83 1.5 SSW 13 17 7 9 1017.6 1017.4 0.0
20/12:00am 13.4 11.9 10.4 82 1.6 S 9 9 5 5 1017.6 1017.4 0.0
 
Date/Time
CDT
Temp
°C
App
Temp
°C
Dew
Point
°C
Rel
Hum
%
Delta-T
°C
Wind Press
QNH
hPa
Press
MSL
hPa
Rain since
9am
mm
Dir  Spd
km/h
Gust
km/h
Spd
kts
Gust
kts
19/11:30pm 14.7 12.1 10.7 77 2.1 S 15 17 8 9 1017.7 1017.5 0.0
19/11:00pm 16.3 14.3 11.5 73 2.6 SSW 13 20 7 11 1017.9 1017.7 0.0
19/10:30pm 16.1 13.1 11.9 76 2.3 SW 19 24 10 13 1018.0 1017.8 0.0
19/10:00pm 16.6 13.2 11.3 71 2.9 SSW 20 26 11 14 1018.0 1017.8 0.0
19/09:30pm 16.8 13.4 11.1 69 3.1 SSW 20 28 11 15 1017.8 1017.6 0.0
19/09:00pm 16.9 12.7 11.0 68 3.2 SSW 24 32 13 17 1017.4 1017.2 0.0
19/08:30pm 17.2 13.1 11.5 69 3.1 SSW 24 33 13 18 1017.3 1017.1 0.0
19/08:00pm 17.3 12.0 11.1 67 3.4 SW 30 37 16 20 1017.0 1016.8 0.0
19/07:30pm 17.3 12.1 10.4 64 3.7 SW 28 39 15 21 1016.8 1016.6 0.0
19/07:00pm 18.4 13.6 11.5 64 3.8 SW 28 41 15 22 1016.7 1016.5 0.0
19/06:30pm 18.5 13.9 11.1 62 4.0 SW 26 33 14 18 1016.7 1016.5 0.0
19/06:00pm 18.5 12.4 10.3 59 4.4 SW 33 43 18 23 1016.5 1016.3 0.0
19/05:30pm 18.2 11.4 10.6 61 4.1 SW 37 46 20 25 1016.5 1016.3 0.0
19/05:00pm 19.5 13.4 10.5 56 4.9 SW 33 46 18 25 1016.6 1016.4 0.0

Other Formats:

Comma delimited format used in spreadsheet applications
http://www.bom.gov.au/fwo/IDS60801/IDS60801.94685.axf

JavaScript Object Notation format (JSON) in row-major order
http://www.bom.gov.au/fwo/IDS60801/IDS60801.94685.json